createdAt,value
2023-04-14T00:02:27.282Z,92.9
2023-04-14T00:07:33.856Z,92.8
2023-04-14T00:13:34.322Z,92.9
2023-04-14T00:17:46.715Z,92.9
2023-04-14T00:22:43.007Z,92.8
2023-04-14T00:27:59.385Z,92.8
2023-04-14T00:33:25.815Z,92.8
2023-04-14T00:38:15.782Z,92.8
2023-04-14T00:43:22.184Z,92.7
2023-04-14T00:48:28.572Z,92.7
2023-04-14T00:53:34.976Z,92.7
2023-04-14T00:59:05.396Z,92.9
2023-04-14T01:03:48.024Z,92.6
2023-04-14T01:09:18.308Z,92.6
2023-04-14T01:14:00.732Z,92.6
2023-04-14T01:29:09.883Z,92.5
2023-04-14T01:34:40.536Z,92.5
2023-04-14T01:49:45.712Z,92.4
2023-04-14T01:54:52.010Z,92.5
2023-04-14T01:59:58.410Z,92.5
2023-04-14T02:05:24.826Z,92.6
2023-04-14T02:15:19.012Z,93.2
2023-04-14T02:20:25.385Z,93.1
2023-04-14T02:25:31.782Z,93.1
2023-04-14T02:31:02.269Z,92.9
2023-04-14T02:35:44.625Z,93.0
2023-04-14T02:45:57.470Z,93.1
2023-04-14T02:51:03.858Z,93.2
2023-04-14T02:56:10.221Z,93.0
2023-04-14T03:01:16.638Z,92.9
2023-04-14T03:06:23.181Z,92.8
2023-04-14T03:11:29.620Z,92.8
2023-04-14T03:16:56.162Z,92.8
2023-04-14T03:21:42.527Z,92.8
2023-04-14T03:26:48.900Z,92.8
2023-04-14T03:36:51.870Z,92.7
2023-04-14T03:52:25.843Z,92.9
2023-04-14T03:57:32.187Z,92.8
2023-04-14T04:02:38.963Z,93.1
2023-04-14T04:07:45.119Z,92.9
2023-04-14T04:12:51.574Z,93.0
2023-04-14T04:17:58.017Z,92.8
2023-04-14T04:23:04.408Z,93.0
2023-04-14T04:28:00.787Z,92.9
2023-04-14T04:33:17.242Z,92.8
2023-04-14T04:38:47.657Z,92.6
2023-04-14T04:43:19.959Z,93.0
2023-04-14T04:48:36.358Z,92.7
2023-04-14T04:53:44.318Z,93.1
2023-04-14T04:58:50.716Z,92.9
2023-04-14T05:09:03.880Z,93.3
2023-04-14T05:14:10.339Z,93.0
2023-04-14T05:24:22.626Z,93.2
2023-04-14T05:29:50.090Z,93.2
2023-04-14T05:34:36.390Z,93.4
2023-04-14T05:39:42.768Z,94.0
2023-04-14T05:44:49.146Z,93.9
2023-04-14T05:49:55.590Z,93.8
2023-04-14T05:55:02.020Z,93.9
2023-04-14T06:00:08.563Z,94.2
2023-04-14T06:05:14.993Z,94.4
2023-04-14T06:15:27.788Z,94.2
2023-04-14T06:20:24.183Z,94.3
2023-04-14T06:25:40.560Z,94.2
2023-04-14T06:30:47.077Z,94.3
2023-04-14T06:35:57.486Z,94.9
2023-04-14T06:41:13.846Z,95.3
2023-04-14T06:46:06.267Z,95.2
2023-04-14T06:51:12.613Z,96.3
2023-04-14T06:56:18.969Z,96.0
2023-04-14T07:01:15.394Z,96.4
2023-04-14T07:06:59.866Z,96.3
2023-04-14T07:17:08.543Z,96.2
2023-04-14T07:21:50.870Z,96.0
2023-04-14T07:26:57.278Z,95.8
2023-04-14T07:32:03.763Z,95.9
2023-04-14T07:37:30.197Z,96.0
2023-04-14T07:47:23.048Z,96.2
2023-04-14T07:52:29.403Z,95.9
2023-04-14T07:57:35.808Z,95.4
2023-04-14T08:02:46.308Z,94.0
2023-04-14T08:07:48.541Z,93.7
2023-04-14T08:12:44.921Z,92.9
2023-04-14T08:18:01.366Z,92.4
2023-04-14T08:23:07.706Z,91.8
2023-04-14T08:28:14.215Z,91.3
2023-04-14T08:33:10.520Z,90.9
2023-04-14T08:39:35.998Z,90.5
2023-04-14T08:43:33.272Z,90.5
2023-04-14T08:48:39.615Z,90.6
2023-04-14T08:53:46.138Z,90.4
2023-04-14T08:58:42.623Z,90.0
2023-04-14T09:03:50.322Z,89.3
2023-04-14T09:08:56.505Z,88.4
2023-04-14T09:14:12.953Z,88.1
2023-04-14T09:24:25.887Z,86.1
2023-04-14T09:29:52.355Z,85.0
2023-04-14T09:34:38.766Z,84.5
2023-04-14T09:44:51.669Z,82.6
2023-04-14T09:55:04.529Z,77.3
2023-04-14T10:00:10.917Z,74.9
2023-04-14T10:05:17.587Z,73.2
2023-04-14T10:15:30.146Z,71.1
2023-04-14T10:20:26.538Z,71.6
2023-04-14T10:25:33.007Z,70.3
2023-04-14T10:31:13.519Z,69.4
2023-04-14T10:46:08.774Z,68.9
2023-04-14T11:01:52.382Z,64.3
2023-04-14T11:06:34.642Z,63.3
2023-04-14T11:11:41.000Z,61.8
2023-04-14T11:16:58.839Z,57.2
2023-04-14T11:22:17.851Z,58.9
2023-04-14T11:32:20.624Z,61.5
2023-04-14T11:42:19.437Z,57.5
2023-04-14T11:47:25.918Z,60.3
2023-04-14T11:57:42.811Z,58.7
2023-04-14T12:02:45.485Z,58.3
2023-04-14T12:13:01.972Z,59.0
2023-04-14T12:23:14.721Z,59.9
2023-04-14T12:28:17.150Z,57.3
2023-04-14T12:33:23.476Z,61.5
2023-04-14T12:38:29.954Z,61.6
2023-04-14T12:43:40.271Z,58.4
2023-04-14T12:48:42.625Z,59.1
2023-04-14T12:53:50.407Z,57.5
2023-04-14T12:58:56.650Z,58.9
2023-04-14T13:09:09.385Z,58.6
2023-04-14T13:14:39.849Z,59.6
2023-04-14T13:24:29.109Z,62.2
2023-04-14T13:29:36.693Z,63.0
2023-04-14T13:34:33.077Z,64.8
2023-04-14T13:39:53.043Z,65.7
2023-04-14T13:50:30.084Z,66.9
2023-04-14T13:55:12.408Z,65.5
2023-04-14T14:00:18.888Z,67.0
2023-04-14T14:05:45.565Z,66.2
2023-04-14T14:10:51.806Z,68.2
2023-04-14T14:25:52.143Z,68.0
2023-04-14T14:30:57.508Z,68.8
2023-04-14T14:41:10.311Z,69.3
2023-04-14T14:46:16.676Z,68.5
2023-04-14T14:51:23.134Z,67.7
2023-04-14T14:56:29.497Z,66.5
2023-04-14T15:01:37.442Z,67.7
2023-04-14T15:06:43.816Z,66.8
2023-04-14T15:11:50.423Z,67.8
2023-04-14T15:17:16.845Z,68.0
2023-04-14T15:22:03.193Z,67.1
2023-04-14T15:27:09.609Z,65.3
2023-04-14T15:32:16.029Z,66.0
2023-04-14T15:37:22.504Z,65.2
2023-04-14T15:47:35.264Z,66.0
2023-04-14T15:52:42.750Z,65.6
2023-04-14T15:58:09.323Z,65.5
2023-04-14T16:03:15.780Z,64.2
2023-04-14T16:08:02.060Z,64.3
2023-04-14T16:12:58.434Z,64.5
2023-04-14T16:18:15.010Z,62.8
2023-04-14T16:23:21.393Z,63.5
2023-04-14T16:28:27.782Z,63.8
2023-04-14T16:38:40.526Z,63.2
2023-04-14T16:43:50.492Z,62.6
2023-04-14T16:48:47.002Z,63.9
2023-04-14T16:54:03.752Z,64.5
2023-04-14T16:59:09.747Z,64.7
2023-04-14T17:04:17.012Z,64.9
2023-04-14T17:14:32.055Z,63.7
2023-04-14T17:24:47.859Z,65.6
2023-04-14T17:29:55.222Z,64.4
2023-04-14T17:35:01.714Z,65.3
2023-04-14T17:40:08.209Z,65.5
2023-04-14T17:45:34.632Z,65.2
2023-04-14T17:50:21.038Z,66.2
2023-04-14T17:55:26.430Z,66.4
2023-04-14T18:00:33.794Z,66.4
2023-04-14T18:06:18.279Z,65.8
2023-04-14T18:10:46.622Z,66.2
2023-04-14T18:15:53.088Z,66.1
2023-04-14T18:21:01.108Z,65.7
2023-04-14T18:26:31.620Z,66.8
2023-04-14T18:31:13.996Z,66.3
2023-04-14T18:36:20.360Z,66.5
2023-04-14T18:41:26.763Z,66.7
2023-04-14T18:46:33.227Z,66.7
2023-04-14T18:51:39.514Z,67.0
2023-04-14T18:56:45.893Z,67.1
2023-04-14T19:01:52.344Z,67.2
2023-04-14T19:06:58.744Z,67.2
2023-04-14T19:12:05.034Z,67.2
2023-04-14T19:17:11.429Z,67.4
2023-04-14T19:22:07.776Z,67.4
2023-04-14T19:27:24.349Z,67.5
2023-04-14T19:32:20.739Z,67.5
2023-04-14T19:42:43.471Z,67.7
2023-04-14T19:47:49.973Z,68.0
2023-04-14T19:52:56.341Z,68.0
2023-04-14T19:58:26.830Z,68.1
2023-04-14T20:02:59.238Z,68.0
2023-04-14T20:08:05.533Z,68.1
2023-04-14T20:13:21.950Z,68.4
2023-04-14T20:18:18.378Z,68.4
2023-04-14T20:23:36.302Z,68.5
2023-04-14T20:29:20.786Z,68.7
2023-04-14T20:33:49.237Z,68.7
2023-04-14T20:49:08.502Z,68.9
2023-04-14T20:54:14.804Z,68.8
2023-04-14T21:00:17.334Z,69.0
2023-04-14T21:04:27.727Z,68.9
2023-04-14T21:09:54.060Z,69.1
2023-04-14T21:15:27.034Z,69.0
2023-04-14T21:20:06.930Z,69.2
2023-04-14T21:24:53.214Z,69.4
2023-04-14T21:29:59.623Z,69.5
2023-04-14T21:35:06.010Z,69.4
2023-04-14T21:40:12.412Z,69.6
2023-04-14T21:45:38.997Z,69.8
2023-04-14T21:55:21.716Z,69.8
2023-04-14T22:05:44.506Z,71.2
2023-04-14T22:10:50.952Z,71.2
2023-04-14T22:16:53.550Z,71.3
2023-04-14T22:21:03.794Z,71.4
2023-04-14T22:26:30.239Z,71.5
2023-04-14T22:31:16.587Z,71.5
2023-04-14T22:36:47.008Z,71.7
2023-04-14T22:41:29.352Z,71.6
2023-04-14T22:46:35.812Z,71.7
2023-04-14T22:51:42.227Z,71.6
2023-04-14T22:56:38.599Z,71.7
2023-04-14T23:01:55.087Z,71.9
2023-04-14T23:07:01.381Z,71.8
2023-04-14T23:12:07.767Z,71.7
2023-04-14T23:17:14.225Z,71.8
2023-04-14T23:22:20.713Z,72.2
2023-04-14T23:27:27.106Z,71.8
2023-04-14T23:33:35.641Z,71.9
2023-04-14T23:38:03.905Z,72.0
2023-04-14T23:42:46.250Z,72.0
2023-04-14T23:48:06.832Z,71.7
2023-04-14T23:52:59.070Z,72.0
2023-04-14T23:58:49.573Z,71.8
